createdAt,value
2019-05-20T00:01:11.282Z,32.78
2019-05-20T00:03:41.937Z,30.82
2019-05-20T00:06:12.883Z,24.30
2019-05-20T00:08:46.454Z,27.58
2019-05-20T00:11:17.406Z,24.77
2019-05-20T00:13:48.128Z,32.85
2019-05-20T00:16:18.974Z,29.10
2019-05-20T00:18:49.809Z,28.92
2019-05-20T00:21:21.113Z,29.12
2019-05-20T00:23:51.891Z,28.60
2019-05-20T00:26:24.352Z,29.25
2019-05-20T00:28:55.089Z,30.82
2019-05-20T00:31:35.471Z,34.53
2019-05-20T00:34:08.229Z,28.73
2019-05-20T00:36:39.084Z,29.65
2019-05-20T00:39:22.427Z,22.20
2019-05-20T00:41:53.283Z,26.25
2019-05-20T00:44:27.238Z,28.38
2019-05-20T00:46:59.893Z,23.00
2019-05-20T00:52:10.400Z,25.82
2019-05-20T00:54:42.873Z,24.50
2019-05-20T01:00:05.653Z,25.00
2019-05-20T01:02:36.695Z,25.75
2019-05-20T01:05:07.895Z,26.50
2019-05-20T01:07:38.964Z,20.93
2019-05-20T01:10:10.076Z,29.35
2019-05-20T01:12:44.718Z,24.67
2019-05-20T01:15:16.826Z,23.90
2019-05-20T01:17:50.084Z,20.77
2019-05-20T01:20:22.416Z,28.52
2019-05-20T01:22:53.389Z,24.77
2019-05-20T01:25:26.632Z,26.82
2019-05-20T01:27:57.436Z,22.40
2019-05-20T01:30:28.275Z,29.10
2019-05-20T01:33:13.403Z,27.55
2019-05-20T01:35:34.960Z,24.70
2019-05-20T01:38:05.928Z,24.50
2019-05-20T01:40:36.888Z,23.40
2019-05-20T01:43:07.823Z,33.02
2019-05-20T01:45:38.745Z,24.45
2019-05-20T01:48:09.605Z,20.17
2019-05-20T01:50:40.262Z,19.92
2019-05-20T01:53:11.127Z,19.48
2019-05-20T01:55:41.986Z,24.47
2019-05-20T01:58:12.935Z,22.87
2019-05-20T02:00:43.767Z,24.25
2019-05-20T02:03:30.389Z,22.82
2019-05-20T02:05:47.094Z,22.70
2019-05-20T02:08:18.082Z,25.07
2019-05-20T02:10:49.155Z,22.07
2019-05-20T02:13:20.253Z,23.18
2019-05-20T02:16:04.348Z,25.23
2019-05-20T02:21:56.708Z,26.05
2019-05-20T02:24:27.638Z,17.92
2019-05-20T02:26:58.468Z,24.67
2019-05-20T02:29:29.334Z,20.48
2019-05-20T02:32:00.159Z,24.70
2019-05-20T02:34:32.546Z,21.10
2019-05-20T02:37:03.873Z,24.02
2019-05-20T02:39:34.725Z,24.23
2019-05-20T02:42:05.553Z,25.75
2019-05-20T02:44:36.483Z,22.75
2019-05-20T02:47:09.891Z,28.05
2019-05-20T02:49:39.904Z,24.20
2019-05-20T02:52:11.574Z,17.95
2019-05-20T02:54:42.510Z,21.27
2019-05-20T02:57:13.450Z,21.87
2019-05-20T02:59:44.379Z,17.85
2019-05-20T03:02:15.215Z,21.27
2019-05-20T03:04:46.185Z,20.68
2019-05-20T03:07:17.072Z,20.88
2019-05-20T03:09:48.287Z,15.13
2019-05-20T03:12:19.380Z,24.82
2019-05-20T03:14:50.575Z,17.23
2019-05-20T03:17:21.559Z,17.77
2019-05-20T03:19:52.853Z,25.37
2019-05-20T03:22:23.765Z,16.52
2019-05-20T03:24:54.788Z,20.45
2019-05-20T03:27:25.727Z,22.47
2019-05-20T03:29:56.650Z,19.20
2019-05-20T03:32:30.945Z,16.82
2019-05-20T03:35:04.019Z,22.25
2019-05-20T03:37:35.143Z,25.97
2019-05-20T03:40:07.159Z,18.37
2019-05-20T03:42:38.123Z,21.62
2019-05-20T03:45:09.170Z,18.30
2019-05-20T03:47:39.733Z,17.40
2019-05-20T03:50:12.088Z,18.62
2019-05-20T03:52:43.103Z,24.50
2019-05-20T03:55:14.174Z,16.67
2019-05-20T03:57:45.144Z,18.10
2019-05-20T04:00:16.125Z,18.47
2019-05-20T04:02:47.034Z,20.33
2019-05-20T04:05:18.262Z,14.80
2019-05-20T04:07:49.264Z,16.90
2019-05-20T04:10:20.189Z,18.02
2019-05-20T04:12:51.254Z,17.73
2019-05-20T04:15:22.472Z,15.53
2019-05-20T04:17:56.049Z,19.80
2019-05-20T04:20:26.905Z,17.73
2019-05-20T04:22:59.260Z,16.87
2019-05-20T04:25:30.320Z,16.70
2019-05-20T04:28:01.355Z,17.67
2019-05-20T04:30:35.527Z,19.30
2019-05-20T04:33:06.844Z,17.27
2019-05-20T04:35:39.739Z,16.30
2019-05-20T04:38:11.048Z,17.27
2019-05-20T04:40:41.856Z,20.15
2019-05-20T04:43:15.659Z,18.52
2019-05-20T04:45:46.720Z,20.00
2019-05-20T04:48:20.656Z,17.65
2019-05-20T04:50:51.591Z,20.30
2019-05-20T04:53:22.958Z,20.47
2019-05-20T04:55:53.787Z,18.40
2019-05-20T04:58:24.794Z,18.00
2019-05-20T05:01:00.738Z,17.97
2019-05-20T05:04:17.048Z,16.27
2019-05-20T05:06:47.873Z,19.98
2019-05-20T05:09:21.906Z,16.97
2019-05-20T05:11:52.583Z,16.45
2019-05-20T05:14:23.151Z,22.85
2019-05-20T05:16:54.470Z,17.90
2019-05-20T05:19:26.542Z,14.47
2019-05-20T05:21:58.107Z,18.52
2019-05-20T05:24:32.938Z,16.67
2019-05-20T05:27:11.539Z,16.42
2019-05-20T05:30:02.860Z,18.25
2019-05-20T05:38:56.126Z,21.52
2019-05-20T05:41:26.869Z,20.00
2019-05-20T05:44:16.584Z,19.53
2019-05-20T05:46:47.544Z,19.90
2019-05-20T05:49:31.518Z,15.87
2019-05-20T05:52:03.156Z,22.87
2019-05-20T05:54:35.609Z,14.35
2019-05-20T05:57:06.579Z,12.05
2019-05-20T05:59:37.376Z,14.37
2019-05-20T06:02:09.328Z,15.15
2019-05-20T06:04:48.689Z,19.45
2019-05-20T06:07:37.404Z,16.02
2019-05-20T06:10:09.800Z,17.32
2019-05-20T06:12:40.780Z,14.33
2019-05-20T06:15:13.541Z,17.87
2019-05-20T06:17:47.218Z,16.50
2019-05-20T06:20:17.948Z,17.30
2019-05-20T06:22:49.083Z,15.35
2019-05-20T06:25:36.138Z,14.78
2019-05-20T06:27:55.995Z,17.12
2019-05-20T06:30:38.763Z,16.70
2019-05-20T06:33:09.813Z,12.37
2019-05-20T06:35:40.852Z,14.77
2019-05-20T06:38:15.097Z,14.10
2019-05-20T06:40:50.442Z,21.97
2019-05-20T06:43:21.540Z,16.45
2019-05-20T06:45:55.006Z,15.87
2019-05-20T06:48:25.204Z,14.53
2019-05-20T06:50:56.649Z,15.90
2019-05-20T06:53:27.759Z,12.98
2019-05-20T06:55:58.899Z,15.95
2019-05-20T06:58:32.663Z,15.68
2019-05-20T07:01:03.689Z,16.90
2019-05-20T07:03:34.733Z,13.17
2019-05-20T07:06:06.481Z,12.83
2019-05-20T07:11:08.231Z,14.78
2019-05-20T07:13:39.710Z,13.68
2019-05-20T07:16:10.695Z,12.93
2019-05-20T07:18:41.375Z,18.57
2019-05-20T07:21:12.380Z,17.95
2019-05-20T07:23:43.678Z,17.20
2019-05-20T07:26:16.231Z,12.80
2019-05-20T07:28:49.032Z,14.35
2019-05-20T07:31:19.261Z,18.52
2019-05-20T07:33:50.805Z,13.80
2019-05-20T07:36:21.588Z,21.52
2019-05-20T07:38:54.051Z,15.30
2019-05-20T07:41:25.527Z,16.50
2019-05-20T07:43:56.605Z,20.72
2019-05-20T07:46:27.441Z,18.37
2019-05-20T07:48:58.042Z,12.60
2019-05-20T07:51:29.176Z,17.73
2019-05-20T07:54:01.314Z,17.27
2019-05-20T07:56:34.074Z,18.95
2019-05-20T07:59:05.591Z,20.90
2019-05-20T08:01:38.925Z,27.20
2019-05-20T08:04:10.360Z,23.35
2019-05-20T08:06:41.624Z,19.20
2019-05-20T08:09:12.846Z,20.57
2019-05-20T08:11:47.007Z,22.27
2019-05-20T08:14:18.141Z,18.40
2019-05-20T08:16:49.730Z,24.00
2019-05-20T08:19:20.524Z,15.05
2019-05-20T08:21:55.709Z,17.30
2019-05-20T08:24:25.143Z,22.15
2019-05-20T08:26:58.232Z,14.68
2019-05-20T08:29:31.447Z,15.40
2019-05-20T08:32:01.226Z,17.92
2019-05-20T08:34:32.604Z,15.83
2019-05-20T08:37:04.817Z,18.37
2019-05-20T08:42:07.903Z,17.52
2019-05-20T08:44:38.619Z,15.43
2019-05-20T08:47:09.631Z,18.07
2019-05-20T08:49:41.103Z,19.27
2019-05-20T08:52:12.274Z,20.08
2019-05-20T08:54:43.310Z,15.20
2019-05-20T08:57:14.225Z,19.45
2019-05-20T08:59:45.311Z,17.13
2019-05-20T09:02:16.420Z,15.07
2019-05-20T09:04:47.550Z,16.87
2019-05-20T09:07:21.954Z,17.32
2019-05-20T09:12:32.960Z,13.98
2019-05-20T09:15:13.501Z,18.30
2019-05-20T09:17:51.531Z,17.32
2019-05-20T09:20:22.536Z,19.70
2019-05-20T09:22:53.790Z,18.03
2019-05-20T09:25:32.570Z,17.05
2019-05-20T09:28:03.514Z,14.53
2019-05-20T09:30:35.219Z,18.20
2019-05-20T09:33:06.972Z,15.28
2019-05-20T09:38:19.524Z,19.90
2019-05-20T09:40:49.308Z,12.20
2019-05-20T09:43:19.944Z,14.63
2019-05-20T09:46:05.684Z,14.18
2019-05-20T09:48:25.083Z,12.30
2019-05-20T09:50:55.294Z,15.35
2019-05-20T09:53:26.414Z,16.07
2019-05-20T09:55:57.188Z,17.47
2019-05-20T09:58:29.769Z,15.68
2019-05-20T10:01:00.626Z,13.45
2019-05-20T10:03:31.476Z,22.13
2019-05-20T10:06:02.306Z,17.15
2019-05-20T10:08:39.130Z,11.50
2019-05-20T10:11:05.505Z,14.87
2019-05-20T10:13:36.507Z,14.73
2019-05-20T10:16:07.851Z,17.50
2019-05-20T10:18:39.471Z,19.77
2019-05-20T10:21:10.609Z,23.25
2019-05-20T10:23:41.381Z,17.00
2019-05-20T10:26:12.189Z,13.70
2019-05-20T10:28:46.501Z,16.32
2019-05-20T10:31:15.113Z,17.35
2019-05-20T10:33:45.962Z,27.27
2019-05-20T10:36:16.864Z,24.57
2019-05-20T10:38:58.731Z,21.33
2019-05-20T10:41:22.327Z,21.60
2019-05-20T10:43:54.017Z,14.65
2019-05-20T10:46:29.480Z,18.00
2019-05-20T10:49:00.619Z,17.55
2019-05-20T10:51:31.671Z,17.25
2019-05-20T10:54:03.935Z,15.72
2019-05-20T10:56:37.838Z,17.48
2019-05-20T10:59:11.929Z,13.72
2019-05-20T11:01:40.907Z,16.77
2019-05-20T11:04:11.668Z,17.27
2019-05-20T11:06:42.572Z,18.90
2019-05-20T11:09:14.516Z,20.00
2019-05-20T11:11:45.875Z,16.85
2019-05-20T11:14:17.375Z,15.63
2019-05-20T11:16:48.242Z,15.40
2019-05-20T11:19:19.063Z,22.17
2019-05-20T11:21:49.741Z,22.75
2019-05-20T11:24:20.533Z,17.00
2019-05-20T11:26:51.505Z,16.48
2019-05-20T11:29:22.430Z,17.87
2019-05-20T11:31:53.270Z,18.15
2019-05-20T11:34:24.167Z,18.00
2019-05-20T11:36:55.184Z,18.27
2019-05-20T11:39:33.139Z,19.57
2019-05-20T11:44:30.227Z,22.57
2019-05-20T11:47:01.077Z,19.73
2019-05-20T11:49:32.665Z,22.15
2019-05-20T11:52:03.805Z,17.17
2019-05-20T11:54:34.795Z,22.93
2019-05-20T11:57:05.703Z,18.48
2019-05-20T11:59:36.584Z,22.75
2019-05-20T12:02:07.406Z,22.95
2019-05-20T12:04:38.319Z,25.37
2019-05-20T12:07:09.167Z,22.67
2019-05-20T12:09:48.842Z,24.12
2019-05-20T12:12:12.596Z,24.30
2019-05-20T12:14:44.127Z,20.13
2019-05-20T12:17:14.980Z,25.50
2019-05-20T12:19:46.057Z,28.42
2019-05-20T12:22:17.422Z,27.45
2019-05-20T12:24:48.486Z,25.17
2019-05-20T12:27:19.440Z,20.77
2019-05-20T12:29:50.390Z,25.72
2019-05-20T12:32:21.423Z,26.60
2019-05-20T12:34:52.368Z,24.82
2019-05-20T12:37:23.213Z,27.05
2019-05-20T12:40:06.396Z,24.55
2019-05-20T12:42:28.034Z,28.12
2019-05-20T12:44:59.331Z,26.90
2019-05-20T12:47:30.238Z,22.05
2019-05-20T12:50:01.045Z,31.15
2019-05-20T12:52:32.214Z,25.57
2019-05-20T12:55:08.112Z,25.57
2019-05-20T13:00:06.484Z,23.92
2019-05-20T13:02:37.503Z,19.62
2019-05-20T13:05:09.423Z,23.40
2019-05-20T13:10:26.788Z,26.97
2019-05-20T13:12:43.362Z,28.00
2019-05-20T13:15:14.362Z,27.00
2019-05-20T13:17:45.596Z,27.10
2019-05-20T13:20:16.736Z,25.97
2019-05-20T13:22:47.626Z,25.15
2019-05-20T13:25:18.490Z,24.82
2019-05-20T13:27:49.507Z,24.40
2019-05-20T13:30:21.542Z,24.70
2019-05-20T13:35:23.036Z,20.90
2019-05-20T13:37:54.003Z,28.38
2019-05-20T13:40:24.961Z,21.65
2019-05-20T13:42:57.657Z,25.70
2019-05-20T13:45:29.328Z,30.50
2019-05-20T13:48:00.080Z,20.40
2019-05-20T13:50:31.018Z,21.68
2019-05-20T13:53:01.920Z,24.65
2019-05-20T13:55:33.026Z,22.37
2019-05-20T13:58:04.015Z,26.70
2019-05-20T14:00:34.733Z,21.55
2019-05-20T14:03:05.623Z,26.42
2019-05-20T14:05:36.617Z,21.90
2019-05-20T14:38:31.148Z,28.30
2019-05-20T14:41:01.929Z,25.37
2019-05-20T14:43:35.275Z,25.97
2019-05-20T14:46:13.405Z,29.40
2019-05-20T14:48:46.256Z,29.60
2019-05-20T14:51:18.701Z,25.90
2019-05-20T14:53:54.340Z,30.15
2019-05-20T14:56:25.537Z,27.10
2019-05-20T14:58:56.621Z,33.73
2019-05-20T15:01:28.028Z,28.90
2019-05-20T15:03:58.962Z,25.73
2019-05-20T15:06:29.792Z,23.95
2019-05-20T15:09:00.969Z,26.20
2019-05-20T15:11:38.015Z,23.03
2019-05-20T15:14:04.681Z,26.25
2019-05-20T15:16:35.921Z,26.30
2019-05-20T15:19:06.844Z,23.20
2019-05-20T15:21:38.559Z,23.77
2019-05-20T15:24:09.222Z,24.15
2019-05-20T15:26:40.296Z,29.65
2019-05-20T15:29:26.850Z,27.15
2019-05-20T15:31:43.505Z,25.82
2019-05-20T15:34:14.691Z,23.20
2019-05-20T15:36:47.216Z,29.77
2019-05-20T15:39:18.151Z,23.45
2019-05-20T15:41:49.082Z,25.82
2019-05-20T15:44:23.261Z,26.05
2019-05-20T15:46:54.600Z,27.22
2019-05-20T15:49:25.879Z,23.57
2019-05-20T15:51:57.447Z,19.90
2019-05-20T15:54:47.212Z,19.75
2019-05-20T15:57:07.232Z,23.87
2019-05-20T15:59:45.731Z,17.27
2019-05-20T16:02:09.755Z,22.42
2019-05-20T16:04:42.542Z,17.87
2019-05-20T16:07:13.859Z,20.08
2019-05-20T16:09:44.784Z,20.87
2019-05-20T16:12:19.039Z,20.27
2019-05-20T16:14:57.019Z,21.35
2019-05-20T16:17:29.333Z,16.42
2019-05-20T16:20:00.391Z,17.35
2019-05-20T16:22:36.009Z,15.65
2019-05-20T16:25:09.946Z,20.85
2019-05-20T16:27:42.091Z,18.42
2019-05-20T16:32:44.361Z,16.45
2019-05-20T16:35:17.381Z,18.70
2019-05-20T16:37:51.813Z,19.17
2019-05-20T16:40:22.092Z,18.48
2019-05-20T16:42:57.343Z,15.93
2019-05-20T16:45:32.034Z,17.15
2019-05-20T16:48:03.997Z,17.75
2019-05-20T16:50:34.901Z,18.20
2019-05-20T16:53:06.734Z,17.25
2019-05-20T16:55:37.584Z,14.13
2019-05-20T16:58:12.790Z,15.18
2019-05-20T17:00:50.243Z,14.93
2019-05-20T17:03:15.485Z,15.18
2019-05-20T17:05:46.477Z,21.62
2019-05-20T17:08:17.455Z,18.12
2019-05-20T17:10:48.547Z,15.93
2019-05-20T17:13:21.097Z,15.93
2019-05-20T17:15:52.356Z,17.75
2019-05-20T17:18:23.437Z,17.03
2019-05-20T17:20:54.356Z,17.37
2019-05-20T17:23:25.408Z,17.40
2019-05-20T17:25:56.341Z,16.85
2019-05-20T17:28:27.173Z,18.75
2019-05-20T17:30:58.281Z,16.27
2019-05-20T17:33:29.128Z,14.73
2019-05-20T17:36:00.189Z,19.27
2019-05-20T17:38:35.443Z,18.57
2019-05-20T17:41:05.626Z,15.95
2019-05-20T17:43:53.058Z,16.62
2019-05-20T17:46:26.043Z,15.38
2019-05-20T17:48:57.587Z,18.75
2019-05-20T17:51:28.345Z,18.82
2019-05-20T17:53:59.307Z,16.05
2019-05-20T17:56:30.225Z,17.50
2019-05-20T17:59:01.139Z,14.75
2019-05-20T18:01:31.913Z,16.42
2019-05-20T18:04:03.013Z,18.65
2019-05-20T18:06:33.874Z,16.52
2019-05-20T18:09:08.207Z,15.78
2019-05-20T18:11:42.351Z,17.12
2019-05-20T18:14:18.527Z,13.53
2019-05-20T18:16:48.554Z,14.63
2019-05-20T18:19:19.210Z,13.98
2019-05-20T18:21:50.049Z,14.70
2019-05-20T18:24:23.317Z,14.33
2019-05-20T18:26:53.323Z,17.10
2019-05-20T18:29:26.242Z,19.92
2019-05-20T18:31:57.233Z,16.62
2019-05-20T18:34:30.705Z,14.38
2019-05-20T18:37:01.446Z,19.52
2019-05-20T18:39:33.043Z,21.17
2019-05-20T18:42:04.446Z,14.93
2019-05-20T18:44:40.282Z,15.13
2019-05-20T18:47:13.126Z,16.05
2019-05-20T18:49:44.657Z,16.87
2019-05-20T18:52:15.806Z,16.17
2019-05-20T18:54:46.852Z,19.30
2019-05-20T18:57:18.316Z,17.55
2019-05-20T18:59:52.176Z,17.80
2019-05-20T19:02:22.661Z,16.70
2019-05-20T19:05:01.298Z,15.25
2019-05-20T19:07:26.688Z,15.28
2019-05-20T19:09:57.782Z,18.25
2019-05-20T19:12:28.762Z,17.30
2019-05-20T19:14:59.781Z,16.90
2019-05-20T19:17:31.016Z,20.88
2019-05-20T19:20:02.023Z,20.72
2019-05-20T19:22:32.993Z,21.05
2019-05-20T19:25:05.488Z,18.57
2019-05-20T19:27:44.069Z,29.30
2019-05-20T19:30:14.640Z,35.50
2019-05-20T19:32:51.338Z,35.58
2019-05-20T19:35:23.872Z,41.98
2019-05-20T19:37:55.099Z,48.68
2019-05-20T19:40:26.113Z,39.92
2019-05-20T19:42:56.912Z,42.58
2019-05-20T19:45:27.861Z,33.45
2019-05-20T19:48:04.843Z,29.15
2019-05-20T19:50:36.182Z,24.50
2019-05-20T19:53:07.059Z,26.43
2019-05-20T19:55:39.798Z,21.10
2019-05-20T19:58:10.953Z,17.75
2019-05-20T20:00:41.568Z,22.85
2019-05-20T20:03:12.415Z,15.88
2019-05-20T20:05:44.474Z,18.35
2019-05-20T20:08:27.626Z,14.38
2019-05-20T20:11:00.074Z,17.95
2019-05-20T20:13:33.953Z,21.00
2019-05-20T20:16:05.601Z,16.70
2019-05-20T20:18:37.883Z,20.82
2019-05-20T20:21:07.722Z,18.23
2019-05-20T20:23:38.717Z,17.12
2019-05-20T20:26:09.671Z,17.48
2019-05-20T20:28:40.821Z,17.35
2019-05-20T20:31:11.935Z,21.87
2019-05-20T20:34:03.359Z,18.77
2019-05-20T20:36:37.215Z,20.68
2019-05-20T20:39:08.455Z,20.52
2019-05-20T20:41:39.586Z,19.53
2019-05-20T20:44:10.789Z,20.37
2019-05-20T20:46:41.867Z,19.57
2019-05-20T20:49:14.894Z,20.75
2019-05-20T20:51:48.175Z,21.87
2019-05-20T20:54:19.397Z,21.07
2019-05-20T20:56:53.077Z,19.27
2019-05-20T20:59:28.412Z,16.93
2019-05-20T21:01:59.080Z,22.02
2019-05-20T21:06:59.885Z,23.35
2019-05-20T21:09:31.112Z,20.30
2019-05-20T21:12:09.603Z,18.92
2019-05-20T21:14:41.060Z,19.77
2019-05-20T21:17:11.742Z,21.95
2019-05-20T21:19:42.792Z,19.60
2019-05-20T21:22:13.765Z,21.87
2019-05-20T21:24:44.912Z,21.75
2019-05-20T21:27:18.512Z,18.05
2019-05-20T21:29:49.392Z,20.97
2019-05-20T21:32:20.415Z,21.52
2019-05-20T21:34:51.248Z,20.35
2019-05-20T21:37:23.307Z,27.65
2019-05-20T21:39:54.515Z,21.50
2019-05-20T21:42:25.561Z,22.65
2019-05-20T21:44:57.046Z,22.73
2019-05-20T21:47:28.192Z,22.52
2019-05-20T21:50:01.189Z,21.62
2019-05-20T21:52:32.691Z,22.42
2019-05-20T21:55:03.623Z,22.95
2019-05-20T21:57:34.665Z,20.52
2019-05-20T22:00:06.910Z,23.73
2019-05-20T22:05:08.199Z,20.82
2019-05-20T22:07:39.369Z,22.77
2019-05-20T22:10:30.814Z,24.87
2019-05-20T22:15:38.424Z,23.05
2019-05-20T22:18:09.491Z,22.93
2019-05-20T22:20:40.448Z,22.37
2019-05-20T22:23:25.660Z,23.62
2019-05-20T22:25:56.398Z,19.92
2019-05-20T22:28:27.674Z,23.85
2019-05-20T22:30:58.597Z,26.97
2019-05-20T22:33:40.941Z,18.73
2019-05-20T22:38:32.645Z,24.20
2019-05-20T22:41:03.482Z,24.55
2019-05-20T22:43:34.482Z,27.13
2019-05-20T22:46:05.500Z,22.30
2019-05-20T22:48:36.462Z,22.65
2019-05-20T22:51:09.666Z,22.30
2019-05-20T22:53:41.044Z,23.80
2019-05-20T22:56:12.114Z,29.45
2019-05-20T22:58:43.220Z,20.95
2019-05-20T23:01:14.160Z,21.45
2019-05-20T23:03:56.112Z,24.43
2019-05-20T23:06:17.318Z,24.12
2019-05-20T23:08:48.561Z,27.65
2019-05-20T23:11:39.706Z,26.57
2019-05-20T23:14:10.963Z,28.47
2019-05-20T23:16:41.958Z,29.50
2019-05-20T23:19:13.307Z,28.95
2019-05-20T23:21:44.492Z,37.00
2019-05-20T23:24:15.718Z,33.63
2019-05-20T23:26:46.742Z,28.65
2019-05-20T23:29:17.705Z,26.23
2019-05-20T23:31:48.694Z,28.32
2019-05-20T23:34:19.986Z,29.40
2019-05-20T23:36:51.036Z,29.60
2019-05-20T23:39:22.049Z,25.30
2019-05-20T23:41:53.240Z,30.92
2019-05-20T23:44:24.112Z,26.27
2019-05-20T23:46:55.307Z,29.23
2019-05-20T23:49:26.344Z,30.20
2019-05-20T23:51:59.347Z,29.80
2019-05-20T23:54:30.707Z,31.30
2019-05-20T23:57:01.713Z,26.57
2019-05-20T23:59:32.858Z,23.95
